createdAt,value
2018-09-10T00:00:06.723Z,12.00
2018-09-10T00:04:46.380Z,11.90
2018-09-10T00:09:26.824Z,12.00
2018-09-10T00:14:07.540Z,12.00
2018-09-10T00:18:47.677Z,11.90
2018-09-10T00:23:27.728Z,11.80
2018-09-10T00:28:07.497Z,11.80
2018-09-10T00:32:47.323Z,11.80
2018-09-10T00:37:26.966Z,11.70
2018-09-10T00:42:06.823Z,11.80
2018-09-10T00:46:46.641Z,11.90
2018-09-10T00:51:26.604Z,11.80
2018-09-10T00:56:07.241Z,11.70
2018-09-10T01:00:47.048Z,11.70
2018-09-10T01:05:27.021Z,11.70
2018-09-10T01:10:06.976Z,11.60
2018-09-10T01:14:47.088Z,11.60
2018-09-10T01:19:26.940Z,11.60
2018-09-10T01:24:06.768Z,11.50
2018-09-10T01:28:47.272Z,11.40
2018-09-10T01:33:33.469Z,11.40
2018-09-10T01:38:13.525Z,11.30
2018-09-10T01:42:53.795Z,11.30
2018-09-10T01:47:35.569Z,11.30
2018-09-10T01:52:15.439Z,11.20
2018-09-10T01:56:55.546Z,11.20
2018-09-10T02:01:35.389Z,11.20
2018-09-10T02:06:15.408Z,11.10
2018-09-10T02:10:55.355Z,11.10
2018-09-10T02:15:40.463Z,11.10
2018-09-10T02:20:20.402Z,11.10
2018-09-10T02:25:00.363Z,11.00
2018-09-10T02:29:41.450Z,11.00
2018-09-10T02:34:22.359Z,11.00
2018-09-10T02:39:03.604Z,10.90
2018-09-10T02:43:44.661Z,10.80
2018-09-10T02:48:24.986Z,10.70
2018-09-10T02:53:05.870Z,10.70
2018-09-10T02:57:45.859Z,10.60
2018-09-10T03:02:25.826Z,10.60
2018-09-10T03:07:06.105Z,10.60
2018-09-10T03:11:46.312Z,10.60
2018-09-10T03:16:26.440Z,10.60
2018-09-10T03:21:06.533Z,10.60
2018-09-10T03:25:46.342Z,10.50
2018-09-10T03:30:26.501Z,10.50
2018-09-10T03:35:06.419Z,10.40
2018-09-10T03:39:46.877Z,10.30
2018-09-10T03:44:27.468Z,10.30
2018-09-10T03:49:07.749Z,10.30
2018-09-10T03:53:48.283Z,10.20
2018-09-10T03:58:29.221Z,10.20
2018-09-10T04:03:09.793Z,10.20
2018-09-10T04:07:49.885Z,10.20
2018-09-10T04:12:29.911Z,10.10
2018-09-10T04:17:10.545Z,10.10
2018-09-10T04:21:50.302Z,10.10
2018-09-10T04:26:30.777Z,10.10
2018-09-10T04:31:11.256Z,10.00
2018-09-10T04:35:51.171Z,9.90
2018-09-10T04:40:31.071Z,9.90
2018-09-10T04:45:10.781Z,9.80
2018-09-10T04:49:51.364Z,9.80
2018-09-10T04:54:31.544Z,9.80
2018-09-10T04:59:11.385Z,9.80
2018-09-10T05:03:51.470Z,9.80
2018-09-10T05:08:32.388Z,9.90
2018-09-10T05:13:12.435Z,9.90
2018-09-10T05:17:52.403Z,9.90
2018-09-10T05:22:33.240Z,10.00
2018-09-10T05:27:13.723Z,10.10
2018-09-10T05:31:53.679Z,10.10
2018-09-10T05:36:34.465Z,10.20
2018-09-10T05:41:15.411Z,10.40
2018-09-10T05:45:56.378Z,10.50
2018-09-10T05:50:36.351Z,10.60
2018-09-10T05:55:16.646Z,10.80
2018-09-10T05:59:57.079Z,11.10
2018-09-10T06:04:37.448Z,11.30
2018-09-10T06:09:17.433Z,11.60
2018-09-10T06:13:58.500Z,12.00
2018-09-10T06:18:39.520Z,12.20
2018-09-10T06:23:19.589Z,12.50
2018-09-10T06:28:00.061Z,12.60
2018-09-10T06:32:41.327Z,12.80
2018-09-10T06:37:21.591Z,13.10
2018-09-10T06:42:01.832Z,13.30
2018-09-10T06:46:42.422Z,13.60
2018-09-10T06:51:22.971Z,13.80
2018-09-10T06:56:05.298Z,14.10
2018-09-10T07:00:45.260Z,14.30
2018-09-10T07:05:25.966Z,14.60
2018-09-10T07:10:06.756Z,14.90
2018-09-10T07:14:48.218Z,15.00
2018-09-10T07:19:29.044Z,15.30
2018-09-10T07:24:20.132Z,15.90
2018-09-10T07:29:01.670Z,16.60
2018-09-10T07:33:41.873Z,17.00
2018-09-10T07:38:21.796Z,17.50
2018-09-10T07:43:02.884Z,18.60
2018-09-10T07:47:44.582Z,20.30
2018-09-10T07:52:25.166Z,21.70
2018-09-10T07:58:34.873Z,22.90
2018-09-10T08:03:15.750Z,23.60
2018-09-10T08:07:55.932Z,24.80
2018-09-10T08:12:36.856Z,26.00
2018-09-10T08:17:17.642Z,27.20
2018-09-10T08:21:58.683Z,27.30
2018-09-10T08:26:39.599Z,27.00
2018-09-10T08:31:20.629Z,26.60
2018-09-10T08:36:01.103Z,26.10
2018-09-10T08:40:41.820Z,25.60
2018-09-10T08:45:22.426Z,25.60
2018-09-10T08:50:02.207Z,25.90
2018-09-10T08:54:42.434Z,26.60
2018-09-10T08:59:23.681Z,26.90
2018-09-10T09:04:06.144Z,27.60
2018-09-10T09:08:46.433Z,28.80
2018-09-10T09:13:26.343Z,29.20
2018-09-10T09:18:07.368Z,28.90
2018-09-10T09:22:48.347Z,29.20
2018-09-10T09:27:28.232Z,29.20
2018-09-10T09:32:09.452Z,30.40
2018-09-10T09:37:55.300Z,30.70
2018-09-10T09:43:39.340Z,30.50
2018-09-10T09:48:19.925Z,31.10
2018-09-10T09:53:00.049Z,30.50
2018-09-10T09:57:40.684Z,30.20
2018-09-10T10:02:21.549Z,30.30
2018-09-10T10:07:02.766Z,30.50
2018-09-10T10:11:43.825Z,30.50
2018-09-10T10:16:23.854Z,31.10
2018-09-10T10:21:04.595Z,32.10
2018-09-10T10:25:45.340Z,33.50
2018-09-10T10:30:25.715Z,34.00
2018-09-10T10:35:06.091Z,33.90
2018-09-10T10:39:46.213Z,33.10
2018-09-10T10:44:26.261Z,33.00
2018-09-10T10:49:06.092Z,32.70
2018-09-10T10:53:47.515Z,32.30
2018-09-10T10:58:28.031Z,33.00
2018-09-10T11:03:07.936Z,33.80
2018-09-10T11:07:48.376Z,34.30
2018-09-10T11:12:29.267Z,34.40
2018-09-10T11:17:09.134Z,34.80
2018-09-10T11:21:48.928Z,35.30
2018-09-10T11:26:29.568Z,35.70
2018-09-10T11:31:09.813Z,36.40
2018-09-10T11:35:49.681Z,37.30
2018-09-10T11:40:29.645Z,37.40
2018-09-10T11:45:09.511Z,37.50
2018-09-10T11:49:49.448Z,37.50
2018-09-10T11:54:29.482Z,37.10
2018-09-10T11:59:10.165Z,36.90
2018-09-10T12:03:50.561Z,36.90
2018-09-10T12:08:31.085Z,36.70
2018-09-10T12:13:10.931Z,36.90
2018-09-10T12:17:50.851Z,37.50
2018-09-10T12:22:30.913Z,38.30
2018-09-10T12:27:10.734Z,38.80
2018-09-10T12:31:50.585Z,39.30
2018-09-10T12:36:30.527Z,39.90
2018-09-10T12:41:10.436Z,39.40
2018-09-10T12:45:50.121Z,39.40
2018-09-10T12:50:30.116Z,39.50
2018-09-10T12:55:09.958Z,39.10
2018-09-10T12:59:49.991Z,39.10
2018-09-10T13:04:29.944Z,39.30
2018-09-10T13:09:10.494Z,39.10
2018-09-10T13:13:50.604Z,39.20
2018-09-10T13:18:30.663Z,39.20
2018-09-10T13:23:10.348Z,38.90
2018-09-10T13:27:50.280Z,38.60
2018-09-10T13:32:30.638Z,38.20
2018-09-10T13:37:10.536Z,37.70
2018-09-10T13:41:50.422Z,37.50
2018-09-10T13:46:30.208Z,37.30
2018-09-10T13:51:10.024Z,37.20
2018-09-10T13:55:50.088Z,37.00
2018-09-10T14:00:29.984Z,36.90
2018-09-10T14:05:09.982Z,37.10
2018-09-10T14:09:50.218Z,36.90
2018-09-10T14:14:30.235Z,36.20
2018-09-10T14:19:10.105Z,35.40
2018-09-10T14:23:50.017Z,34.40
2018-09-10T14:28:30.101Z,33.60
2018-09-10T14:33:09.962Z,33.10
2018-09-10T14:37:49.751Z,32.40
2018-09-10T14:42:29.624Z,31.80
2018-09-10T14:47:09.883Z,31.60
2018-09-10T14:51:49.866Z,31.30
2018-09-10T14:56:29.599Z,31.00
2018-09-10T15:01:09.404Z,30.70
2018-09-10T15:05:49.828Z,30.40
2018-09-10T15:10:29.440Z,30.40
2018-09-10T15:15:09.257Z,30.40
2018-09-10T15:19:49.161Z,30.30
2018-09-10T15:24:29.343Z,30.10
2018-09-10T15:29:09.141Z,30.00
2018-09-10T15:33:49.142Z,29.80
2018-09-10T15:38:29.009Z,29.70
2018-09-10T15:43:09.065Z,29.50
2018-09-10T15:47:48.813Z,29.20
2018-09-10T15:52:28.657Z,29.00
2018-09-10T15:57:08.890Z,28.90
2018-09-10T16:01:48.632Z,28.70
2018-09-10T16:06:28.577Z,28.50
2018-09-10T16:11:08.356Z,28.30
2018-09-10T16:15:48.085Z,28.20
2018-09-10T16:20:28.093Z,28.00
2018-09-10T16:25:07.989Z,27.80
2018-09-10T16:29:47.683Z,27.60
2018-09-10T16:34:27.458Z,27.50
2018-09-10T16:39:09.088Z,27.30
2018-09-10T16:43:49.125Z,27.00
2018-09-10T16:48:28.903Z,26.80
2018-09-10T16:53:08.601Z,26.70
2018-09-10T16:57:48.535Z,26.60
2018-09-10T17:02:28.404Z,26.40
2018-09-10T17:07:08.176Z,26.20
2018-09-10T17:11:47.963Z,26.10
2018-09-10T17:16:27.804Z,25.90
2018-09-10T17:21:08.580Z,25.80
2018-09-10T17:25:52.412Z,25.60
2018-09-10T17:30:32.181Z,25.40
2018-09-10T17:35:12.156Z,25.30
2018-09-10T17:39:51.968Z,25.10
2018-09-10T17:44:32.214Z,24.90
2018-09-10T17:49:11.908Z,24.70
2018-09-10T17:53:51.685Z,24.40
2018-09-10T17:58:31.516Z,24.10
2018-09-10T18:03:12.380Z,23.80
2018-09-10T18:07:52.323Z,23.40
2018-09-10T18:12:32.047Z,23.20
2018-09-10T18:17:12.345Z,22.90
2018-09-10T18:21:52.320Z,22.60
2018-09-10T18:26:32.177Z,22.30
2018-09-10T18:31:12.030Z,22.10
2018-09-10T18:35:52.641Z,21.80
2018-09-10T18:40:33.458Z,21.50
2018-09-10T18:45:13.144Z,21.30
2018-09-10T18:49:53.024Z,21.10
2018-09-10T18:54:33.183Z,20.90
2018-09-10T18:59:12.964Z,20.80
2018-09-10T19:03:52.851Z,20.70
2018-09-10T19:08:32.716Z,20.50
2018-09-10T19:13:12.522Z,20.30
2018-09-10T19:17:52.387Z,20.10
2018-09-10T19:22:32.388Z,19.90
2018-09-10T19:27:12.113Z,19.80
2018-09-10T19:31:52.188Z,19.60
2018-09-10T19:36:32.046Z,19.30
2018-09-10T19:41:11.881Z,19.10
2018-09-10T19:45:51.818Z,18.80
2018-09-10T19:50:33.090Z,18.60
2018-09-10T19:55:12.845Z,18.40
2018-09-10T19:59:52.720Z,18.20
2018-09-10T20:04:32.869Z,18.10
2018-09-10T20:09:12.701Z,18.00
2018-09-10T20:13:52.736Z,17.80
2018-09-10T20:18:32.612Z,17.70
2018-09-10T20:23:12.810Z,17.60
2018-09-10T20:27:53.333Z,17.50
2018-09-10T20:32:33.768Z,17.40
2018-09-10T20:37:14.337Z,17.30
2018-09-10T20:41:55.619Z,17.20
2018-09-10T20:46:36.636Z,17.10
2018-09-10T20:51:17.560Z,17.00
2018-09-10T20:55:58.311Z,16.90
2018-09-10T21:00:38.063Z,16.90
2018-09-10T21:05:17.933Z,16.80
2018-09-10T21:09:58.025Z,16.80
2018-09-10T21:14:38.055Z,16.80
2018-09-10T21:19:19.408Z,16.70
2018-09-10T21:23:59.456Z,16.70
2018-09-10T21:28:39.815Z,16.60
2018-09-10T21:33:19.662Z,16.50
2018-09-10T21:38:00.073Z,16.40
2018-09-10T21:42:40.324Z,16.20
2018-09-10T21:47:21.642Z,16.10
2018-09-10T21:52:01.499Z,16.10
2018-09-10T21:56:42.630Z,16.00
2018-09-10T22:01:23.267Z,16.00
2018-09-10T22:06:03.848Z,15.90
2018-09-10T22:10:44.770Z,15.90
2018-09-10T22:15:25.305Z,15.90
2018-09-10T22:20:05.152Z,15.90
2018-09-10T22:24:45.090Z,15.80
2018-09-10T22:29:26.137Z,15.80
2018-09-10T22:34:05.973Z,15.70
2018-09-10T22:38:46.415Z,15.70
2018-09-10T22:43:27.040Z,15.50
2018-09-10T22:48:06.946Z,15.50
2018-09-10T22:52:46.640Z,15.50
2018-09-10T22:57:26.622Z,15.30
2018-09-10T23:02:07.095Z,15.10
2018-09-10T23:06:48.053Z,14.90
2018-09-10T23:11:27.796Z,14.80
2018-09-10T23:16:07.827Z,14.80
2018-09-10T23:20:48.520Z,14.80
2018-09-10T23:25:28.444Z,14.70
2018-09-10T23:30:08.820Z,14.60
2018-09-10T23:34:48.559Z,14.50
2018-09-10T23:39:28.903Z,14.40
2018-09-10T23:44:09.164Z,14.30
2018-09-10T23:48:49.065Z,14.20
2018-09-10T23:53:30.385Z,14.10
2018-09-10T23:58:11.699Z,14.00
